createdAt,value
2022-07-25T00:00:32.887Z,6.60
2022-07-25T00:01:32.942Z,6.90
2022-07-25T00:02:32.861Z,7.00
2022-07-25T00:03:32.854Z,6.60
2022-07-25T00:04:32.912Z,6.80
2022-07-25T00:05:37.649Z,6.40
2022-07-25T00:06:32.851Z,6.50
2022-07-25T00:07:32.828Z,6.60
2022-07-25T00:08:32.794Z,6.80
2022-07-25T00:09:32.787Z,6.50
2022-07-25T00:10:32.774Z,6.80
2022-07-25T00:11:32.775Z,6.30
2022-07-25T00:12:32.755Z,6.60
2022-07-25T00:13:32.746Z,6.70
2022-07-25T00:14:32.733Z,6.50
2022-07-25T00:15:32.722Z,6.80
2022-07-25T00:16:32.796Z,6.60
2022-07-25T00:17:32.709Z,6.90
2022-07-25T00:18:32.690Z,6.80
2022-07-25T00:19:32.674Z,6.50
2022-07-25T00:20:32.669Z,6.90
2022-07-25T00:21:32.663Z,7.30
2022-07-25T00:22:32.659Z,6.90
2022-07-25T00:23:32.637Z,6.70
2022-07-25T00:24:32.620Z,7.00
2022-07-25T00:25:32.616Z,6.70
2022-07-25T00:26:35.482Z,6.90
2022-07-25T00:27:32.605Z,6.60
2022-07-25T00:28:32.592Z,6.50
2022-07-25T00:29:32.574Z,7.00
2022-07-25T00:30:32.562Z,6.80
2022-07-25T00:31:32.613Z,7.10
2022-07-25T00:32:32.539Z,6.80
2022-07-25T00:33:32.537Z,6.60
2022-07-25T00:34:32.518Z,6.80
2022-07-25T00:35:32.511Z,6.90
2022-07-25T00:36:32.503Z,7.00
2022-07-25T00:37:32.490Z,6.50
2022-07-25T00:38:32.487Z,6.40
2022-07-25T00:39:32.464Z,6.60
2022-07-25T00:40:32.448Z,6.50
2022-07-25T00:41:32.440Z,6.50
2022-07-25T00:42:32.439Z,7.00
2022-07-25T00:43:32.429Z,6.30
2022-07-25T00:44:32.408Z,6.60
2022-07-25T00:45:32.421Z,6.70
2022-07-25T00:47:41.349Z,5.30
2022-07-25T00:48:42.424Z,6.30
2022-07-25T00:49:42.329Z,6.50
2022-07-25T00:50:42.313Z,6.30
2022-07-25T00:51:42.293Z,6.40
2022-07-25T00:52:42.304Z,6.50
2022-07-25T00:53:42.271Z,6.30
2022-07-25T00:54:42.274Z,6.40
2022-07-25T00:55:42.252Z,6.50
2022-07-25T00:56:42.237Z,6.40
2022-07-25T00:57:42.246Z,6.40
2022-07-25T00:58:42.227Z,6.20
2022-07-25T00:59:42.225Z,6.30
2022-07-25T01:00:42.208Z,6.20
2022-07-25T01:01:42.261Z,6.60
2022-07-25T01:02:42.291Z,6.40
2022-07-25T01:03:42.169Z,6.30
2022-07-25T01:04:42.166Z,6.10
2022-07-25T01:05:42.136Z,6.10
2022-07-25T01:06:42.139Z,6.50
2022-07-25T01:07:42.116Z,6.60
2022-07-25T01:08:42.121Z,6.40
2022-07-25T01:09:42.105Z,6.20
2022-07-25T01:10:42.103Z,6.10
2022-07-25T01:11:42.078Z,6.30
2022-07-25T01:12:42.091Z,6.30
2022-07-25T01:13:42.053Z,6.10
2022-07-25T01:14:42.048Z,6.10
2022-07-25T01:15:42.085Z,6.30
2022-07-25T01:16:42.088Z,6.30
2022-07-25T01:17:42.029Z,5.70
2022-07-25T01:18:42.006Z,6.20
2022-07-25T01:19:41.997Z,6.30
2022-07-25T01:20:41.984Z,6.30
2022-07-25T01:21:41.982Z,6.30
2022-07-25T01:22:41.953Z,5.80
2022-07-25T01:23:41.949Z,6.20
2022-07-25T01:24:41.950Z,6.60
2022-07-25T01:25:41.921Z,6.30
2022-07-25T01:26:41.916Z,6.30
2022-07-25T01:27:41.897Z,6.10
2022-07-25T01:28:42.830Z,5.90
2022-07-25T01:29:41.879Z,6.40
2022-07-25T01:30:41.937Z,6.20
2022-07-25T01:31:41.868Z,6.30
2022-07-25T01:32:41.844Z,5.90
2022-07-25T01:33:41.843Z,6.10
2022-07-25T01:34:41.828Z,6.40
2022-07-25T01:35:43.527Z,5.90
2022-07-25T01:36:41.816Z,5.80
2022-07-25T01:37:41.791Z,6.10
2022-07-25T01:38:41.802Z,6.30
2022-07-25T01:39:41.766Z,6.00
2022-07-25T01:40:41.755Z,5.90
2022-07-25T01:41:41.752Z,5.70
2022-07-25T01:42:41.740Z,6.20
2022-07-25T01:43:41.730Z,6.30
2022-07-25T01:44:41.709Z,5.80
2022-07-25T01:45:41.697Z,6.20
2022-07-25T01:46:41.722Z,5.90
2022-07-25T01:47:41.681Z,5.80
2022-07-25T01:48:41.730Z,6.10
2022-07-25T01:49:41.651Z,6.60
2022-07-25T01:50:41.642Z,5.80
2022-07-25T01:51:41.658Z,5.60
2022-07-25T01:52:41.638Z,6.40
2022-07-25T01:53:41.608Z,5.70
2022-07-25T01:54:41.602Z,5.40
2022-07-25T01:55:41.594Z,5.90
2022-07-25T01:56:41.589Z,6.00
2022-07-25T01:57:41.576Z,6.30
2022-07-25T01:58:41.563Z,5.70
2022-07-25T01:59:41.547Z,6.00
2022-07-25T02:00:41.530Z,5.70
2022-07-25T02:01:41.594Z,5.90
2022-07-25T02:02:41.527Z,6.40
2022-07-25T02:03:41.496Z,6.00
2022-07-25T02:04:41.545Z,5.80
2022-07-25T02:05:41.498Z,6.00
2022-07-25T02:06:41.484Z,6.30
2022-07-25T02:07:41.480Z,6.10
2022-07-25T02:08:41.451Z,5.80
2022-07-25T02:09:41.432Z,6.00
2022-07-25T02:10:41.446Z,6.20
2022-07-25T02:11:41.423Z,5.80
2022-07-25T02:12:41.427Z,6.00
2022-07-25T02:13:41.388Z,5.90
2022-07-25T02:14:41.384Z,5.90
2022-07-25T02:15:41.371Z,6.30
2022-07-25T02:16:41.403Z,6.10
2022-07-25T02:17:41.365Z,5.50
2022-07-25T02:18:41.337Z,5.90
2022-07-25T02:19:41.326Z,6.30
2022-07-25T02:20:41.316Z,5.70
2022-07-25T02:21:41.326Z,6.00
2022-07-25T02:22:41.301Z,6.30
2022-07-25T02:23:41.295Z,6.00
2022-07-25T02:24:41.266Z,6.20
2022-07-25T02:25:41.259Z,5.60
2022-07-25T02:26:41.248Z,5.60
2022-07-25T02:27:41.237Z,5.90
2022-07-25T02:28:41.250Z,6.10
2022-07-25T02:29:41.245Z,6.20
2022-07-25T02:30:41.274Z,5.80
2022-07-25T02:31:41.193Z,5.50
2022-07-25T02:32:41.188Z,5.80
2022-07-25T02:33:41.180Z,6.40
2022-07-25T02:34:41.169Z,5.90
2022-07-25T02:35:41.145Z,6.20
2022-07-25T02:36:41.134Z,6.20
2022-07-25T02:37:41.125Z,6.10
2022-07-25T02:38:41.113Z,6.00
2022-07-25T02:39:41.112Z,5.50
2022-07-25T02:40:41.148Z,5.70
2022-07-25T02:41:41.083Z,5.70
2022-07-25T02:42:41.075Z,6.20
2022-07-25T02:43:41.071Z,6.10
2022-07-25T02:44:41.048Z,6.00
2022-07-25T02:45:41.108Z,6.20
2022-07-25T02:46:41.026Z,5.90
2022-07-25T02:48:50.042Z,5.90
2022-07-25T02:49:50.957Z,5.90
2022-07-25T02:50:50.957Z,6.00
2022-07-25T02:51:50.931Z,6.20
2022-07-25T02:52:50.921Z,6.20
2022-07-25T02:53:59.014Z,6.10
2022-07-25T02:54:50.915Z,5.60
2022-07-25T02:55:50.901Z,5.80
2022-07-25T02:56:50.892Z,6.10
2022-07-25T02:57:50.870Z,6.10
2022-07-25T02:58:50.854Z,6.40
2022-07-25T02:59:50.845Z,5.90
2022-07-25T03:00:50.883Z,6.30
2022-07-25T03:01:50.955Z,5.80
2022-07-25T03:02:50.829Z,5.80
2022-07-25T03:03:50.887Z,6.00
2022-07-25T03:04:50.800Z,6.00
2022-07-25T03:05:50.799Z,5.80
2022-07-25T03:06:50.775Z,6.20
2022-07-25T03:07:50.773Z,6.20
2022-07-25T03:08:50.761Z,6.20
2022-07-25T03:09:50.738Z,6.40
2022-07-25T03:10:50.725Z,6.10
2022-07-25T03:11:50.723Z,6.20
2022-07-25T03:12:50.731Z,5.90
2022-07-25T03:13:50.714Z,6.00
2022-07-25T03:14:50.690Z,5.60
2022-07-25T03:15:50.788Z,6.10
2022-07-25T03:16:50.867Z,5.80
2022-07-25T03:17:50.657Z,6.00
2022-07-25T03:18:50.658Z,6.00
2022-07-25T03:19:50.639Z,5.80
2022-07-25T03:20:50.619Z,6.10
2022-07-25T03:21:50.617Z,6.10
2022-07-25T03:22:50.597Z,6.30
2022-07-25T03:23:52.823Z,5.80
2022-07-25T03:24:50.603Z,6.20
2022-07-25T03:25:50.579Z,6.10
2022-07-25T03:26:50.576Z,6.40
2022-07-25T03:27:50.539Z,6.10
2022-07-25T03:28:50.533Z,6.00
2022-07-25T03:29:50.529Z,5.80
2022-07-25T03:30:50.522Z,6.00
2022-07-25T03:31:50.590Z,6.20
2022-07-25T03:32:50.503Z,5.60
2022-07-25T03:33:50.475Z,6.30
2022-07-25T03:34:50.462Z,5.90
2022-07-25T03:35:50.453Z,5.90
2022-07-25T03:36:50.460Z,5.70
2022-07-25T03:37:50.445Z,6.40
2022-07-25T03:38:50.424Z,5.90
2022-07-25T03:39:50.421Z,5.80
2022-07-25T03:40:50.405Z,6.00
2022-07-25T03:41:50.384Z,6.80
2022-07-25T03:42:50.415Z,6.40
2022-07-25T03:43:50.374Z,6.30
2022-07-25T03:44:50.356Z,6.50
2022-07-25T03:45:50.388Z,6.50
2022-07-25T03:46:50.357Z,6.50
2022-07-25T03:47:50.356Z,6.50
2022-07-25T03:48:50.380Z,7.20
2022-07-25T03:49:50.306Z,6.30
2022-07-25T03:50:50.312Z,6.40
2022-07-25T03:51:50.281Z,5.90
2022-07-25T03:52:50.284Z,5.90
2022-07-25T03:53:50.258Z,5.90
2022-07-25T03:54:50.263Z,5.70
2022-07-25T03:55:50.241Z,6.20
2022-07-25T03:56:50.231Z,6.20
2022-07-25T03:57:50.209Z,6.60
2022-07-25T03:58:50.200Z,6.20
2022-07-25T03:59:50.203Z,6.20
2022-07-25T04:00:50.259Z,6.50
2022-07-25T04:01:50.237Z,6.30
2022-07-25T04:02:50.234Z,6.30
2022-07-25T04:03:50.169Z,5.90
2022-07-25T04:04:50.143Z,5.90
2022-07-25T04:05:50.121Z,5.80
2022-07-25T04:06:50.110Z,6.20
2022-07-25T04:07:50.102Z,5.70
2022-07-25T04:08:50.092Z,6.30
2022-07-25T04:09:50.099Z,6.00
2022-07-25T04:10:50.071Z,6.80
2022-07-25T04:11:50.058Z,6.10
2022-07-25T04:12:50.058Z,6.20
2022-07-25T04:13:50.047Z,6.20
2022-07-25T04:14:50.030Z,5.80
2022-07-25T04:15:50.033Z,5.80
2022-07-25T04:16:50.118Z,6.10
2022-07-25T04:17:49.994Z,6.30
2022-07-25T04:18:49.982Z,6.40
2022-07-25T04:19:49.976Z,6.00
2022-07-25T04:20:49.989Z,5.90
2022-07-25T04:21:49.946Z,6.10
2022-07-25T04:22:49.943Z,5.70
2022-07-25T04:23:49.933Z,6.10
2022-07-25T04:24:49.917Z,6.70
2022-07-25T04:25:49.960Z,6.00
2022-07-25T04:26:49.905Z,6.30
2022-07-25T04:27:49.908Z,6.70
2022-07-25T04:28:49.894Z,6.50
2022-07-25T04:29:49.919Z,6.00
2022-07-25T04:30:49.852Z,6.10
2022-07-25T04:31:49.930Z,6.10
2022-07-25T04:32:49.845Z,6.10
2022-07-25T04:33:49.824Z,5.60
2022-07-25T04:34:49.829Z,5.90
2022-07-25T04:35:49.812Z,6.30
2022-07-25T04:36:49.786Z,6.30
2022-07-25T04:37:49.808Z,6.40
2022-07-25T04:38:49.768Z,6.20
2022-07-25T04:39:49.752Z,6.00
2022-07-25T04:40:49.747Z,6.20
2022-07-25T04:41:49.742Z,5.90
2022-07-25T04:42:49.740Z,5.50
2022-07-25T04:43:49.723Z,6.10
2022-07-25T04:44:50.478Z,6.00
2022-07-25T04:45:49.757Z,6.00
2022-07-25T04:46:49.705Z,5.80
2022-07-25T04:47:49.675Z,6.30
2022-07-25T04:49:58.696Z,5.40
2022-07-25T04:50:59.651Z,6.00
2022-07-25T04:51:59.652Z,6.00
2022-07-25T04:52:59.635Z,6.20
2022-07-25T04:53:59.629Z,6.10
2022-07-25T04:54:59.635Z,6.10
2022-07-25T04:55:59.627Z,5.90
2022-07-25T04:56:59.595Z,5.90
2022-07-25T04:57:59.587Z,6.20
2022-07-25T04:59:06.193Z,6.10
2022-07-25T04:59:59.550Z,6.00
2022-07-25T05:00:59.621Z,5.90
2022-07-25T05:01:59.590Z,6.00
2022-07-25T05:02:59.649Z,6.00
2022-07-25T05:03:59.513Z,6.10
2022-07-25T05:04:59.508Z,5.70
2022-07-25T05:05:59.493Z,6.00
2022-07-25T05:06:59.475Z,5.60
2022-07-25T05:07:59.465Z,6.10
2022-07-25T05:08:59.448Z,6.10
2022-07-25T05:09:59.445Z,6.30
2022-07-25T05:10:59.429Z,6.10
2022-07-25T05:11:59.416Z,6.00
2022-07-25T05:12:59.397Z,6.20
2022-07-25T05:13:59.392Z,6.00
2022-07-25T05:14:59.447Z,6.10
2022-07-25T05:15:59.415Z,6.00
2022-07-25T05:16:59.360Z,6.00
2022-07-25T05:17:59.345Z,6.50
2022-07-25T05:18:59.338Z,6.30
2022-07-25T05:19:59.348Z,6.20
2022-07-25T05:20:59.325Z,5.70
2022-07-25T05:21:59.307Z,6.20
2022-07-25T05:22:59.292Z,6.60
2022-07-25T05:23:59.283Z,6.00
2022-07-25T05:24:59.278Z,5.90
2022-07-25T05:25:59.261Z,5.80
2022-07-25T05:26:59.246Z,6.40
2022-07-25T05:27:59.258Z,6.20
2022-07-25T05:28:59.231Z,5.90
2022-07-25T05:29:59.229Z,6.20
2022-07-25T05:30:59.212Z,5.80
2022-07-25T05:31:59.284Z,6.20
2022-07-25T05:32:59.176Z,6.00
2022-07-25T05:33:59.179Z,6.10
2022-07-25T05:34:59.158Z,6.40
2022-07-25T05:35:59.148Z,6.00
2022-07-25T05:36:59.184Z,6.40
2022-07-25T05:37:59.128Z,5.70
2022-07-25T05:38:59.165Z,6.10
2022-07-25T05:39:59.113Z,5.70
2022-07-25T05:40:59.102Z,6.10
2022-07-25T05:41:59.111Z,5.80
2022-07-25T05:43:02.914Z,6.10
2022-07-25T05:43:59.083Z,5.90
2022-07-25T05:44:59.048Z,6.10
2022-07-25T05:45:59.043Z,6.10
2022-07-25T05:46:59.234Z,6.30
2022-07-25T05:47:59.026Z,6.30
2022-07-25T05:48:59.089Z,5.70
2022-07-25T05:49:59.009Z,6.00
2022-07-25T05:50:59.003Z,5.80
2022-07-25T05:51:58.998Z,5.70
2022-07-25T05:52:58.964Z,5.80
2022-07-25T05:53:58.988Z,6.00
2022-07-25T05:54:58.949Z,5.80
2022-07-25T05:55:58.955Z,5.80
2022-07-25T05:56:58.920Z,6.00
2022-07-25T05:57:58.914Z,5.90
2022-07-25T05:58:58.913Z,5.90
2022-07-25T05:59:58.892Z,5.90
2022-07-25T06:00:58.883Z,5.90
2022-07-25T06:01:59.037Z,5.50
2022-07-25T06:02:58.984Z,6.00
2022-07-25T06:03:58.871Z,5.40
2022-07-25T06:04:58.841Z,6.10
2022-07-25T06:05:58.832Z,5.80
2022-07-25T06:06:58.814Z,5.80
2022-07-25T06:07:58.817Z,5.70
2022-07-25T06:08:58.802Z,5.90
2022-07-25T06:09:58.800Z,5.70
2022-07-25T06:10:58.775Z,6.00
2022-07-25T06:12:01.146Z,5.60
2022-07-25T06:12:58.749Z,5.70
2022-07-25T06:13:58.738Z,5.70
2022-07-25T06:14:58.749Z,5.70
2022-07-25T06:15:58.810Z,5.50
2022-07-25T06:16:58.708Z,5.70
2022-07-25T06:17:58.698Z,5.60
2022-07-25T06:18:58.688Z,5.70
2022-07-25T06:19:58.692Z,5.70
2022-07-25T06:20:58.677Z,5.70
2022-07-25T06:21:58.656Z,5.80
2022-07-25T06:22:58.640Z,5.50
2022-07-25T06:23:58.626Z,5.70
2022-07-25T06:24:58.637Z,5.50
2022-07-25T06:25:58.618Z,5.60
2022-07-25T06:26:58.611Z,5.80
2022-07-25T06:27:58.590Z,5.50
2022-07-25T06:28:58.593Z,5.60
2022-07-25T06:29:58.573Z,5.80
2022-07-25T06:30:58.632Z,6.00
2022-07-25T06:31:58.721Z,5.90
2022-07-25T06:32:58.550Z,5.50
2022-07-25T06:33:58.525Z,5.30
2022-07-25T06:34:58.926Z,5.40
2022-07-25T06:35:58.501Z,5.50
2022-07-25T06:36:58.517Z,5.40
2022-07-25T06:37:58.485Z,5.40
2022-07-25T06:38:58.466Z,6.00
2022-07-25T06:39:58.466Z,5.40
2022-07-25T06:40:58.445Z,5.70
2022-07-25T06:41:58.448Z,5.60
2022-07-25T06:42:58.439Z,5.60
2022-07-25T06:43:58.417Z,5.80
2022-07-25T06:44:58.411Z,6.20
2022-07-25T06:45:58.390Z,5.60
2022-07-25T06:46:58.483Z,6.00
2022-07-25T06:47:58.388Z,5.50
2022-07-25T06:48:58.424Z,5.40
2022-07-25T06:51:07.740Z,5.00
2022-07-25T06:52:08.717Z,5.10
2022-07-25T06:53:08.714Z,5.50
2022-07-25T06:54:09.253Z,5.90
2022-07-25T06:55:08.697Z,5.80
2022-07-25T06:56:08.675Z,5.60
2022-07-25T06:57:08.665Z,5.80
2022-07-25T06:58:08.660Z,5.70
2022-07-25T06:59:08.661Z,5.30
2022-07-25T07:00:08.638Z,5.40
2022-07-25T07:01:08.675Z,6.20
2022-07-25T07:02:08.610Z,6.20
2022-07-25T07:03:08.688Z,5.70
2022-07-25T07:04:08.996Z,5.50
2022-07-25T07:05:08.587Z,5.50
2022-07-25T07:06:08.604Z,5.50
2022-07-25T07:07:08.567Z,5.60
2022-07-25T07:08:08.549Z,5.90
2022-07-25T07:09:08.576Z,5.30
2022-07-25T07:10:08.531Z,6.00
2022-07-25T07:11:08.553Z,5.30
2022-07-25T07:12:08.505Z,5.50
2022-07-25T07:13:08.502Z,5.90
2022-07-25T07:14:08.950Z,5.50
2022-07-25T07:15:08.480Z,6.00
2022-07-25T07:16:08.639Z,5.60
2022-07-25T07:17:08.478Z,6.00
2022-07-25T07:18:08.442Z,5.70
2022-07-25T07:19:08.763Z,5.80
2022-07-25T07:20:08.435Z,6.00
2022-07-25T07:21:08.453Z,5.70
2022-07-25T07:22:08.412Z,5.80
2022-07-25T07:23:08.387Z,5.30
2022-07-25T07:24:22.104Z,5.50
2022-07-25T07:25:08.376Z,5.20
2022-07-25T07:26:08.371Z,5.40
2022-07-25T07:27:08.368Z,5.60
2022-07-25T07:28:08.362Z,5.30
2022-07-25T07:29:08.771Z,5.70
2022-07-25T07:30:08.316Z,5.60
2022-07-25T07:31:17.173Z,5.30
2022-07-25T07:32:08.422Z,5.50
2022-07-25T07:33:08.329Z,6.00
2022-07-25T07:34:08.289Z,6.20
2022-07-25T07:35:08.268Z,5.40
2022-07-25T07:36:08.288Z,5.60
2022-07-25T07:37:08.262Z,5.60
2022-07-25T07:38:08.230Z,5.90
2022-07-25T07:39:08.548Z,5.70
2022-07-25T07:40:08.211Z,5.60
2022-07-25T07:41:08.204Z,5.90
2022-07-25T07:42:08.199Z,5.80
2022-07-25T07:43:08.185Z,5.50
2022-07-25T07:44:08.162Z,5.90
2022-07-25T07:45:08.166Z,5.50
2022-07-25T07:46:08.188Z,5.30
2022-07-25T07:47:08.175Z,5.50
2022-07-25T07:48:08.135Z,5.80
2022-07-25T07:49:08.574Z,5.70
2022-07-25T07:50:08.109Z,5.80
2022-07-25T07:51:08.112Z,5.70
2022-07-25T07:52:08.087Z,5.70
2022-07-25T07:53:08.089Z,5.70
2022-07-25T07:54:08.054Z,5.50
2022-07-25T07:55:08.040Z,5.70
2022-07-25T07:56:08.036Z,5.90
2022-07-25T07:57:08.043Z,5.40
2022-07-25T07:58:08.031Z,5.80
2022-07-25T07:59:08.540Z,5.90
2022-07-25T08:00:07.992Z,5.40
2022-07-25T08:01:08.005Z,5.90
2022-07-25T08:02:08.132Z,6.10
2022-07-25T08:03:08.095Z,6.00
2022-07-25T08:04:07.947Z,5.70
2022-07-25T08:05:07.936Z,5.40
2022-07-25T08:06:07.925Z,5.90
2022-07-25T08:07:07.907Z,5.70
2022-07-25T08:08:07.915Z,5.90
2022-07-25T08:09:08.371Z,5.50
2022-07-25T08:10:07.884Z,5.40
2022-07-25T08:11:07.871Z,5.90
2022-07-25T08:12:07.854Z,5.80
2022-07-25T08:13:07.856Z,5.90
2022-07-25T08:14:08.245Z,5.50
2022-07-25T08:15:07.825Z,5.60
2022-07-25T08:16:07.908Z,5.40
2022-07-25T08:17:07.811Z,6.10
2022-07-25T08:18:16.993Z,5.50
2022-07-25T08:19:07.801Z,5.70
2022-07-25T08:20:27.878Z,5.70
2022-07-25T08:21:07.769Z,5.50
2022-07-25T08:22:07.770Z,5.40
2022-07-25T08:23:07.744Z,5.30
2022-07-25T08:24:08.169Z,5.40
2022-07-25T08:25:07.726Z,5.80
2022-07-25T08:26:07.727Z,5.60
2022-07-25T08:27:07.700Z,5.60
2022-07-25T08:28:07.691Z,5.60
2022-07-25T08:29:22.861Z,4.90
2022-07-25T08:30:07.675Z,5.40
2022-07-25T08:31:07.763Z,5.10
2022-07-25T08:32:07.650Z,5.40
2022-07-25T08:33:07.672Z,5.10
2022-07-25T08:34:08.005Z,5.70
2022-07-25T08:35:11.371Z,5.20
2022-07-25T08:36:07.626Z,5.50
2022-07-25T08:37:07.594Z,5.20
2022-07-25T08:38:07.582Z,5.40
2022-07-25T08:39:07.708Z,5.60
2022-07-25T08:40:07.567Z,5.30
2022-07-25T08:41:07.579Z,5.40
2022-07-25T08:42:10.947Z,5.60
2022-07-25T08:43:07.539Z,5.00
2022-07-25T08:44:07.791Z,5.20
2022-07-25T08:45:07.510Z,4.80
2022-07-25T08:46:07.586Z,5.20
2022-07-25T08:47:07.501Z,5.00
2022-07-25T08:48:07.522Z,5.10
2022-07-25T08:49:07.522Z,5.10
2022-07-25T08:50:07.462Z,5.40
2022-07-25T08:52:16.426Z,4.80
2022-07-25T08:53:32.510Z,5.00
2022-07-25T08:54:17.389Z,5.20
2022-07-25T08:55:17.369Z,5.20
2022-07-25T08:56:20.963Z,5.20
2022-07-25T08:57:17.370Z,4.80
2022-07-25T08:58:17.367Z,4.90
2022-07-25T08:59:17.330Z,5.30
2022-07-25T09:00:17.352Z,5.20
2022-07-25T09:01:17.468Z,4.70
2022-07-25T09:02:17.435Z,5.20
2022-07-25T09:03:17.427Z,5.10
2022-07-25T09:04:17.304Z,4.90
2022-07-25T09:05:17.269Z,5.00
2022-07-25T09:06:17.277Z,5.00
2022-07-25T09:07:17.267Z,4.90
2022-07-25T09:08:17.278Z,5.20
2022-07-25T09:09:17.390Z,5.20
2022-07-25T09:10:17.337Z,4.60
2022-07-25T09:11:17.303Z,5.20
2022-07-25T09:12:17.234Z,5.10
2022-07-25T09:13:17.212Z,4.90
2022-07-25T09:14:17.193Z,5.00
2022-07-25T09:15:17.178Z,5.10
2022-07-25T09:16:17.256Z,4.90
2022-07-25T09:17:22.154Z,5.20
2022-07-25T09:18:17.202Z,4.60
2022-07-25T09:19:17.154Z,4.90
2022-07-25T09:20:18.645Z,4.90
2022-07-25T09:21:17.116Z,5.20
2022-07-25T09:22:17.104Z,5.30
2022-07-25T09:23:17.094Z,4.70
2022-07-25T09:24:17.129Z,4.80
2022-07-25T09:25:17.096Z,5.10
2022-07-25T09:26:17.065Z,4.90
2022-07-25T09:27:17.054Z,5.30
2022-07-25T09:28:17.045Z,4.70
2022-07-25T09:29:17.037Z,4.80
2022-07-25T09:30:17.035Z,5.30
2022-07-25T09:31:17.113Z,4.80
2022-07-25T09:32:17.009Z,5.10
2022-07-25T09:33:16.987Z,4.90
2022-07-25T09:34:16.982Z,5.00
2022-07-25T09:35:16.982Z,5.30
2022-07-25T09:36:16.963Z,4.60
2022-07-25T09:37:16.952Z,5.00
2022-07-25T09:38:16.942Z,5.10
2022-07-25T09:39:16.944Z,5.40
2022-07-25T09:40:16.932Z,4.90
2022-07-25T09:41:16.905Z,5.10
2022-07-25T09:42:16.898Z,5.30
2022-07-25T09:43:16.888Z,5.40
2022-07-25T09:44:16.875Z,5.00
2022-07-25T09:45:16.880Z,5.30
2022-07-25T09:46:16.928Z,4.80
2022-07-25T09:47:16.848Z,5.30
2022-07-25T09:48:16.829Z,5.40
2022-07-25T09:49:16.919Z,5.20
2022-07-25T09:50:16.838Z,5.30
2022-07-25T09:51:16.807Z,5.10
2022-07-25T09:52:16.796Z,4.90
2022-07-25T09:53:16.778Z,5.10
2022-07-25T09:54:16.772Z,4.70
2022-07-25T09:55:16.776Z,5.20
2022-07-25T09:56:16.763Z,5.30
2022-07-25T09:57:16.739Z,4.80
2022-07-25T09:58:16.727Z,5.20
2022-07-25T09:59:16.721Z,4.90
2022-07-25T10:00:19.458Z,5.00
2022-07-25T10:01:16.862Z,4.80
2022-07-25T10:02:16.737Z,5.30
2022-07-25T10:03:16.678Z,5.10
2022-07-25T10:04:16.663Z,5.00
2022-07-25T10:05:16.659Z,5.10
2022-07-25T10:06:16.655Z,5.00
2022-07-25T10:07:16.637Z,4.90
2022-07-25T10:08:16.628Z,4.90
2022-07-25T10:09:16.615Z,5.20
2022-07-25T10:10:16.611Z,5.20
2022-07-25T10:11:16.601Z,4.90
2022-07-25T10:12:16.596Z,5.30
2022-07-25T10:13:16.579Z,5.20
2022-07-25T10:14:16.563Z,4.70
2022-07-25T10:15:16.548Z,5.00
2022-07-25T10:16:16.536Z,5.30
2022-07-25T10:17:16.627Z,5.00
2022-07-25T10:18:16.517Z,4.80
2022-07-25T10:19:16.512Z,5.10
2022-07-25T10:20:16.497Z,5.00
2022-07-25T10:21:26.805Z,5.00
2022-07-25T10:22:16.491Z,5.20
2022-07-25T10:23:16.465Z,5.00
2022-07-25T10:24:16.458Z,4.90
2022-07-25T10:25:16.460Z,5.00
2022-07-25T10:26:16.442Z,5.20
2022-07-25T10:27:16.434Z,5.00
2022-07-25T10:28:16.421Z,5.10
2022-07-25T10:29:16.413Z,5.00
2022-07-25T10:30:16.409Z,5.20
2022-07-25T10:31:16.428Z,5.50
2022-07-25T10:32:16.401Z,5.00
2022-07-25T10:33:16.387Z,5.20
2022-07-25T10:34:16.366Z,5.00
2022-07-25T10:35:16.360Z,4.90
2022-07-25T10:36:16.359Z,5.20
2022-07-25T10:37:16.391Z,5.50
2022-07-25T10:38:16.341Z,4.70
2022-07-25T10:39:16.317Z,5.20
2022-07-25T10:40:16.290Z,4.90
2022-07-25T10:41:16.286Z,4.60
2022-07-25T10:42:16.266Z,5.20
2022-07-25T10:43:16.275Z,4.70
2022-07-25T10:44:16.251Z,5.00
2022-07-25T10:45:16.251Z,4.70
2022-07-25T10:46:16.278Z,5.30
2022-07-25T10:47:16.334Z,4.90
2022-07-25T10:48:16.239Z,4.50
2022-07-25T10:49:16.254Z,5.60
2022-07-25T10:50:34.391Z,5.10
2022-07-25T10:51:16.194Z,4.70
2022-07-25T10:53:25.157Z,4.10
2022-07-25T10:54:26.151Z,4.70
2022-07-25T10:55:26.126Z,5.10
2022-07-25T10:56:26.109Z,5.30
2022-07-25T10:57:29.800Z,5.00
2022-07-25T10:58:26.090Z,5.10
2022-07-25T10:59:26.088Z,4.90
2022-07-25T11:00:26.100Z,4.70
2022-07-25T11:01:26.147Z,4.80
2022-07-25T11:02:26.102Z,4.70
2022-07-25T11:03:26.032Z,5.10
2022-07-25T11:04:26.032Z,5.10
2022-07-25T11:05:26.021Z,5.30
2022-07-25T11:06:26.003Z,5.10
2022-07-25T11:07:26.595Z,4.90
2022-07-25T11:08:25.983Z,5.20
2022-07-25T11:09:27.562Z,5.20
2022-07-25T11:10:25.979Z,5.40
2022-07-25T11:11:25.951Z,4.90
2022-07-25T11:12:25.962Z,5.40
2022-07-25T11:13:25.941Z,4.90
2022-07-25T11:14:25.919Z,4.80
2022-07-25T11:15:25.922Z,4.90
2022-07-25T11:16:25.989Z,5.20
2022-07-25T11:17:25.890Z,4.90
2022-07-25T11:18:25.872Z,5.10
2022-07-25T11:19:25.866Z,5.20
2022-07-25T11:20:25.868Z,5.30
2022-07-25T11:21:25.846Z,4.70
2022-07-25T11:22:25.829Z,5.10
2022-07-25T11:23:25.817Z,4.90
2022-07-25T11:24:25.807Z,5.40
2022-07-25T11:25:25.812Z,5.00
2022-07-25T11:26:25.783Z,5.30
2022-07-25T11:27:25.787Z,5.00
2022-07-25T11:28:25.779Z,5.40
2022-07-25T11:29:25.770Z,5.20
2022-07-25T11:30:25.774Z,5.30
2022-07-25T11:31:25.841Z,5.70
2022-07-25T11:32:25.740Z,5.30
2022-07-25T11:33:25.715Z,5.40
2022-07-25T11:34:25.707Z,5.20
2022-07-25T11:35:25.715Z,4.90
2022-07-25T11:36:25.710Z,5.30
2022-07-25T11:37:25.696Z,4.80
2022-07-25T11:38:25.700Z,5.50
2022-07-25T11:39:25.660Z,5.30
2022-07-25T11:40:25.635Z,4.80
2022-07-25T11:41:25.643Z,4.90
2022-07-25T11:42:25.623Z,5.30
2022-07-25T11:43:25.603Z,5.00
2022-07-25T11:44:25.593Z,5.30
2022-07-25T11:45:25.581Z,5.20
2022-07-25T11:46:25.671Z,5.20
2022-07-25T11:47:25.573Z,5.20
2022-07-25T11:48:25.609Z,5.10
2022-07-25T11:49:25.608Z,5.50
2022-07-25T11:50:25.565Z,5.40
2022-07-25T11:51:25.520Z,5.30
2022-07-25T11:52:25.531Z,5.60
2022-07-25T11:53:25.514Z,5.60
2022-07-25T11:54:25.491Z,5.30
2022-07-25T11:55:25.477Z,5.00
2022-07-25T11:56:42.640Z,5.60
2022-07-25T11:57:25.459Z,5.40
2022-07-25T11:58:25.469Z,5.60
2022-07-25T11:59:25.440Z,5.40
2022-07-25T12:00:25.431Z,5.40
2022-07-25T12:01:25.422Z,5.00
2022-07-25T12:02:25.588Z,5.00
2022-07-25T12:03:25.550Z,5.50
2022-07-25T12:04:25.384Z,5.90
2022-07-25T12:05:25.374Z,5.80
2022-07-25T12:06:25.364Z,5.80
2022-07-25T12:07:25.354Z,5.80
2022-07-25T12:08:25.358Z,5.30
2022-07-25T12:09:25.326Z,5.30
2022-07-25T12:10:25.320Z,5.60
2022-07-25T12:11:25.305Z,5.10
2022-07-25T12:12:25.297Z,5.70
2022-07-25T12:13:25.301Z,5.20
2022-07-25T12:14:25.308Z,5.60
2022-07-25T12:15:25.287Z,5.30
2022-07-25T12:16:25.308Z,5.20
2022-07-25T12:17:25.246Z,5.10
2022-07-25T12:18:25.245Z,4.80
2022-07-25T12:19:25.239Z,5.10
2022-07-25T12:20:25.226Z,5.10
2022-07-25T12:21:25.204Z,5.00
2022-07-25T12:22:25.201Z,5.10
2022-07-25T12:23:25.192Z,5.50
2022-07-25T12:24:25.166Z,5.10
2022-07-25T12:25:30.394Z,5.20
2022-07-25T12:26:25.148Z,5.40
2022-07-25T12:27:25.144Z,5.40
2022-07-25T12:28:25.129Z,5.30
2022-07-25T12:29:25.113Z,4.90
2022-07-25T12:30:25.154Z,5.10
2022-07-25T12:31:25.160Z,5.70
2022-07-25T12:32:25.104Z,5.30
2022-07-25T12:33:25.080Z,5.50
2022-07-25T12:34:25.067Z,5.60
2022-07-25T12:35:25.073Z,5.50
2022-07-25T12:36:25.046Z,5.00
2022-07-25T12:37:25.039Z,5.50
2022-07-25T12:38:25.032Z,5.50
2022-07-25T12:39:25.017Z,5.40
2022-07-25T12:40:25.018Z,5.40
2022-07-25T12:41:25.009Z,4.80
2022-07-25T12:42:24.987Z,5.10
2022-07-25T12:43:24.984Z,5.30
2022-07-25T12:44:24.982Z,5.40
2022-07-25T12:45:24.959Z,5.20
2022-07-25T12:46:25.014Z,5.50
2022-07-25T12:47:24.977Z,5.30
2022-07-25T12:48:24.932Z,5.20
2022-07-25T12:49:24.981Z,5.50
2022-07-25T12:50:24.899Z,5.30
2022-07-25T12:51:24.972Z,5.40
2022-07-25T12:52:24.905Z,4.90
2022-07-25T12:54:33.836Z,5.60
2022-07-25T12:55:34.829Z,5.50
2022-07-25T12:56:34.817Z,5.30
2022-07-25T12:57:34.815Z,5.60
2022-07-25T12:58:34.804Z,5.20
2022-07-25T12:59:34.776Z,5.20
2022-07-25T13:00:34.768Z,5.00
2022-07-25T13:01:34.787Z,5.40
2022-07-25T13:02:34.875Z,4.90
2022-07-25T13:03:34.753Z,5.70
2022-07-25T13:04:34.739Z,5.40
2022-07-25T13:05:34.719Z,5.20
2022-07-25T13:06:38.591Z,5.00
2022-07-25T13:07:34.693Z,5.40
2022-07-25T13:08:34.721Z,5.20
2022-07-25T13:09:34.675Z,5.10
2022-07-25T13:10:34.678Z,5.30
2022-07-25T13:11:34.655Z,5.00
2022-07-25T13:12:34.641Z,5.20
2022-07-25T13:13:34.637Z,5.80
2022-07-25T13:14:34.629Z,5.60
2022-07-25T13:15:34.628Z,5.50
2022-07-25T13:16:34.726Z,5.50
2022-07-25T13:17:34.611Z,5.40
2022-07-25T13:18:34.601Z,5.50
2022-07-25T13:19:34.587Z,5.50
2022-07-25T13:20:34.587Z,5.40
2022-07-25T13:21:34.558Z,6.10
2022-07-25T13:22:34.543Z,5.70
2022-07-25T13:23:34.538Z,5.30
2022-07-25T13:24:34.529Z,5.20
2022-07-25T13:25:34.529Z,5.80
2022-07-25T13:26:34.506Z,5.50